Schwertner, Texas
Current Conditions -  °F | °C
As of 2:55 AM on Thursday 23 Oct 2014 (Local Time) from KGRK Reporting Station
Broken Clouds Broken Clouds  
Wind Chill: 70°   Ceiling: 13000
Heat Index: 70°   Visibility: 7mi
Dew Point: 57°   Wind: 9mph
Humidity: 64%   Direction: 120°ESE
Pressure: 30.1"   Gusts: NA
Location:  30.82°N, 97.51°W
Report Text: KGRK 230755Z 12008KT 7SM BKN130 21/14 A3010 RMK SLP190
Loading
Personal Weather Stations






























Interactive Weather Map
Tropical Storm Tracking
New forecast layout! Learn more

10-Day Weather Forecast

Advertisements
Track Severe Weather on mobile